Time;durP1;ratioP1;P1;durP2;ratioP2;P2;SDS_P1;SDS_P2;PMS_P1;PMS_P2;Temp;Humidity;BMP_temperature;BMP_pressure;BME280_temperature;BME280_humidity;BME280_pressure;Samples;Min_cycle;Max_cycle;Signal;HPM_P1;HPM_P2
2023/06/25 00:00:09;;;;;;;;;2.25;2.25;;;;;;;;5074875;27;45407;-72
2023/06/25 00:02:35;;;;;;;;;3.00;3.00;;;;;;;;5080968;27;45501;-71
2023/06/25 00:05:00;;;;;;;;;6.25;4.50;;;;;;;;5080017;27;45446;-73
2023/06/25 00:07:25;;;;;;;;;5.00;4.75;;;;;;;;5081997;27;45906;-72
2023/06/25 00:09:51;;;;;;;;;5.00;5.00;;;;;;;;5075567;27;45446;-72
2023/06/25 00:12:17;;;;;;;;;5.50;3.00;;;;;;;;5074324;28;45482;-72
2023/06/25 00:14:42;;;;;;;;;3.00;3.00;;;;;;;;5074122;27;46195;-70
2023/06/25 00:17:07;;;;;;;;;2.00;2.00;;;;;;;;5074858;27;45434;-71
2023/06/25 00:19:32;;;;;;;;;4.00;3.00;;;;;;;;5080585;27;45494;-71
2023/06/25 00:21:57;;;;;;;;;3.00;3.00;;;;;;;;5075219;27;45455;-72
2023/06/25 00:24:23;;;;;;;;;4.25;4.25;;;;;;;;5077231;27;45624;-74
2023/06/25 00:26:48;;;;;;;;;3.75;3.75;;;;;;;;5078823;27;45314;-73
2023/06/25 00:29:14;;;;;;;;;3.00;3.00;;;;;;;;5082307;27;45423;-72
2023/06/25 00:31:39;;;;;;;;;5.75;4.00;;;;;;;;5079410;27;45414;-73
2023/06/25 00:34:04;;;;;;;;;3.75;3.75;;;;;;;;5077701;27;46317;-73
2023/06/25 00:36:36;;;;;;;;;2.50;2.00;;;;;;;;5077869;27;45419;-73
2023/06/25 00:39:02;;;;;;;;;3.00;3.00;;;;;;;;5053374;28;45446;-72
2023/06/25 00:41:28;;;;;;;;;3.00;3.00;;;;;;;;5053835;28;45435;-72
2023/06/25 00:43:53;;;;;;;;;4.50;4.00;;;;;;;;5073377;28;45386;-72
2023/06/25 00:46:18;;;;;;;;;4.25;4.25;;;;;;;;5077120;28;45304;-73
2023/06/25 00:48:47;;;;;;;;;5.25;3.00;;;;;;;;5077667;28;45434;-73
2023/06/25 00:51:16;;;;;;;;;2.75;2.75;;;;;;;;5087507;27;45606;-72
2023/06/25 00:53:42;;;;;;;;;3.00;3.00;;;;;;;;5079326;27;46243;-73
2023/06/25 00:56:07;;;;;;;;;4.25;3.00;;;;;;;;5068184;27;45534;-73
2023/06/25 00:58:38;;;;;;;;;5.00;5.00;;;;;;;;5089029;27;45337;-73
2023/06/25 01:01:05;;;;;;;;;5.00;3.50;;;;;;;;5078059;27;45604;-72
2023/06/25 01:03:36;;;;;;;;;3.25;2.00;;;;;;;;5081152;27;45528;-73
2023/06/25 01:06:08;;;;;;;;;4.25;3.00;;;;;;;;5083818;27;45505;-72
2023/06/25 01:08:36;;;;;;;;;4.00;3.00;;;;;;;;5083193;27;45609;-73
2023/06/25 01:11:02;;;;;;;;;3.00;3.00;;;;;;;;5084172;27;45310;-73
2023/06/25 01:13:27;;;;;;;;;4.00;4.00;;;;;;;;5080944;27;46217;-73
2023/06/25 01:15:52;;;;;;;;;4.00;4.00;;;;;;;;5087542;27;45394;-72
2023/06/25 01:18:18;;;;;;;;;3.00;3.00;;;;;;;;5082243;27;45512;-73
2023/06/25 01:20:43;;;;;;;;;3.25;3.25;;;;;;;;5083561;27;45393;-72
2023/06/25 01:23:11;;;;;;;;;4.75;3.75;;;;;;;;5088147;27;45437;-72
2023/06/25 01:25:38;;;;;;;;;3.75;3.75;;;;;;;;5078650;27;45402;-73
2023/06/25 01:28:03;;;;;;;;;3.25;3.25;;;;;;;;5080938;27;45393;-72
2023/06/25 01:30:31;;;;;;;;;3.50;2.00;;;;;;;;5086891;27;45609;-72
2023/06/25 01:32:56;;;;;;;;;5.25;5.00;;;;;;;;5094793;27;46237;-71
2023/06/25 01:35:22;;;;;;;;;2.00;2.00;;;;;;;;5089724;27;45639;-72
2023/06/25 01:37:47;;;;;;;;;6.00;5.00;;;;;;;;5087711;27;45416;-72
2023/06/25 01:40:12;;;;;;;;;2.75;2.75;;;;;;;;5086085;27;45610;-72
2023/06/25 01:42:37;;;;;;;;;3.25;3.25;;;;;;;;5066147;27;46631;-72
2023/06/25 01:45:03;;;;;;;;;3.00;3.00;;;;;;;;5086883;27;45401;-72
2023/06/25 01:47:29;;;;;;;;;3.50;3.50;;;;;;;;5088668;27;45774;-72
2023/06/25 01:49:54;;;;;;;;;5.00;4.00;;;;;;;;5085204;27;45423;-71
2023/06/25 01:52:19;;;;;;;;;4.25;4.00;;;;;;;;5075041;27;47833;-73
2023/06/25 01:54:46;;;;;;;;;3.25;2.50;;;;;;;;5084469;27;45408;-73
2023/06/25 01:57:11;;;;;;;;;4.00;3.00;;;;;;;;5084052;27;45380;-72
2023/06/25 01:59:36;;;;;;;;;4.25;3.00;;;;;;;;5066928;27;45500;-73
2023/06/25 02:02:02;;;;;;;;;3.75;3.50;;;;;;;;5082283;27;45486;-72
2023/06/25 02:04:27;;;;;;;;;5.00;3.25;;;;;;;;5083760;27;45527;-72
2023/06/25 02:06:53;;;;;;;;;3.50;3.50;;;;;;;;5090323;27;45380;-73
2023/06/25 02:09:18;;;;;;;;;2.75;2.75;;;;;;;;5078104;27;45355;-68
2023/06/25 02:11:44;;;;;;;;;4.00;4.00;;;;;;;;5095958;27;45406;-68
2023/06/25 02:14:09;;;;;;;;;3.00;3.00;;;;;;;;5089150;27;45397;-67
2023/06/25 02:16:34;;;;;;;;;2.75;2.75;;;;;;;;5089527;27;45505;-67
2023/06/25 02:18:59;;;;;;;;;2.00;2.00;;;;;;;;5095963;27;45477;-68
2023/06/25 02:21:25;;;;;;;;;3.00;3.00;;;;;;;;5096237;27;46355;-67
2023/06/25 02:23:50;;;;;;;;;4.50;3.50;;;;;;;;5096007;27;45305;-68
2023/06/25 02:26:15;;;;;;;;;3.75;3.75;;;;;;;;5084332;27;45323;-66
2023/06/25 02:28:40;;;;;;;;;4.00;4.00;;;;;;;;5087150;27;45254;-67
2023/06/25 02:31:05;;;;;;;;;5.00;4.75;;;;;;;;5095416;27;45360;-67
2023/06/25 02:33:31;;;;;;;;;3.00;3.00;;;;;;;;5095267;27;45311;-68
2023/06/25 02:35:56;;;;;;;;;3.50;3.50;;;;;;;;5091940;27;45393;-68
2023/06/25 02:38:21;;;;;;;;;2.75;2.75;;;;;;;;5077934;27;45301;-68
2023/06/25 02:40:46;;;;;;;;;4.00;3.00;;;;;;;;5096061;27;47437;-68
2023/06/25 02:43:12;;;;;;;;;4.25;3.75;;;;;;;;5081822;27;45350;-68
2023/06/25 02:45:37;;;;;;;;;3.25;3.25;;;;;;;;5075576;28;45411;-68
2023/06/25 02:48:02;;;;;;;;;2.75;2.75;;;;;;;;5075924;28;45450;-68
2023/06/25 02:50:27;;;;;;;;;2.50;2.50;;;;;;;;5075935;28;45422;-67
2023/06/25 02:52:53;;;;;;;;;2.25;2.25;;;;;;;;5075941;27;45474;-68
2023/06/25 02:55:18;;;;;;;;;2.75;2.75;;;;;;;;5075551;27;45536;-68
2023/06/25 02:57:43;;;;;;;;;3.00;3.00;;;;;;;;5075835;28;45389;-68
2023/06/25 03:00:09;;;;;;;;;4.00;4.00;;;;;;;;5075404;28;45532;-68
2023/06/25 03:02:34;;;;;;;;;3.50;3.00;;;;;;;;5058869;27;45712;-68
2023/06/25 03:04:59;;;;;;;;;3.00;2.50;;;;;;;;5084035;27;45434;-68
2023/06/25 03:07:24;;;;;;;;;2.00;2.00;;;;;;;;5075211;28;45577;-68
2023/06/25 03:09:49;;;;;;;;;3.50;3.50;;;;;;;;5075178;28;47052;-68
2023/06/25 03:12:15;;;;;;;;;3.00;3.00;;;;;;;;5080068;27;45350;-68
2023/06/25 03:14:41;;;;;;;;;3.25;3.00;;;;;;;;5088340;27;45784;-68
2023/06/25 03:17:06;;;;;;;;;2.75;2.75;;;;;;;;5088006;27;45381;-68
2023/06/25 03:19:31;;;;;;;;;3.00;3.00;;;;;;;;5081778;27;47174;-67
2023/06/25 03:21:57;;;;;;;;;4.25;3.00;;;;;;;;5095515;27;45480;-68
2023/06/25 03:24:22;;;;;;;;;4.50;4.00;;;;;;;;5095430;27;45397;-67
2023/06/25 03:26:47;;;;;;;;;5.00;4.00;;;;;;;;5095210;27;45425;-68
2023/06/25 03:29:12;;;;;;;;;3.50;2.50;;;;;;;;5095312;27;45785;-67
2023/06/25 03:31:38;;;;;;;;;4.25;3.50;;;;;;;;5094888;27;45398;-67
2023/06/25 03:34:03;;;;;;;;;4.25;3.00;;;;;;;;5076861;27;45450;-67
2023/06/25 03:36:28;;;;;;;;;3.50;2.75;;;;;;;;5074074;28;45458;-68
2023/06/25 03:38:54;;;;;;;;;5.25;5.25;;;;;;;;5073934;28;45527;-68
2023/06/25 03:41:19;;;;;;;;;2.75;2.75;;;;;;;;5076136;27;46085;-68
2023/06/25 03:43:45;;;;;;;;;4.00;4.00;;;;;;;;5084949;27;45617;-68
2023/06/25 03:46:10;;;;;;;;;1.00;1.00;;;;;;;;5073760;28;45653;-68
2023/06/25 03:48:36;;;;;;;;;3.00;3.00;;;;;;;;5074339;28;45299;-67
2023/06/25 03:51:01;;;;;;;;;2.50;2.50;;;;;;;;5055502;28;45419;-68
2023/06/25 03:53:26;;;;;;;;;4.00;4.00;;;;;;;;5073560;28;45433;-68
2023/06/25 03:55:52;;;;;;;;;3.75;3.75;;;;;;;;5071722;28;45537;-68
2023/06/25 03:58:17;;;;;;;;;3.75;3.00;;;;;;;;5073749;28;46271;-68
2023/06/25 04:00:42;;;;;;;;;2.25;2.25;;;;;;;;5073725;28;45434;-68
2023/06/25 04:03:07;;;;;;;;;2.50;0.75;;;;;;;;5074230;28;45446;-68
2023/06/25 04:05:33;;;;;;;;;8.00;4.00;;;;;;;;5073840;28;45443;-67
2023/06/25 04:07:58;;;;;;;;;2.25;2.25;;;;;;;;5074206;28;47079;-67
2023/06/25 04:10:23;;;;;;;;;3.00;3.00;;;;;;;;5074075;28;45441;-68
2023/06/25 04:12:48;;;;;;;;;3.25;3.25;;;;;;;;5073957;28;45369;-68
2023/06/25 04:15:14;;;;;;;;;2.00;2.00;;;;;;;;5076817;27;45430;-68
2023/06/25 04:17:40;;;;;;;;;3.00;3.00;;;;;;;;5081969;27;45386;-68
2023/06/25 04:20:06;;;;;;;;;3.25;3.00;;;;;;;;5087594;27;45438;-67
2023/06/25 04:22:31;;;;;;;;;3.75;3.75;;;;;;;;5097331;27;45288;-68
2023/06/25 04:24:56;;;;;;;;;3.50;3.50;;;;;;;;5098393;27;45339;-68
2023/06/25 04:27:21;;;;;;;;;2.50;2.50;;;;;;;;5091876;27;45629;-68
2023/06/25 04:29:46;;;;;;;;;3.75;3.75;;;;;;;;5087542;27;45521;-68
2023/06/25 04:32:11;;;;;;;;;3.25;3.25;;;;;;;;5087936;27;45445;-68
2023/06/25 04:34:37;;;;;;;;;3.00;3.00;;;;;;;;5077204;27;45311;-67
2023/06/25 04:37:02;;;;;;;;;3.00;3.00;;;;;;;;5097426;27;46198;-67
2023/06/25 04:39:27;;;;;;;;;6.50;5.00;;;;;;;;5097496;27;45589;-68
2023/06/25 04:41:52;;;;;;;;;3.00;3.00;;;;;;;;5095001;27;45287;-68
2023/06/25 04:44:18;;;;;;;;;4.00;3.25;;;;;;;;5077974;28;45226;-68
2023/06/25 04:46:43;;;;;;;;;3.50;3.25;;;;;;;;5077725;28;47381;-68
2023/06/25 04:49:09;;;;;;;;;3.00;1.75;;;;;;;;5077071;28;45290;-68
2023/06/25 04:51:34;;;;;;;;;3.00;3.00;;;;;;;;5058851;28;45535;-68
2023/06/25 04:53:59;;;;;;;;;2.75;2.75;;;;;;;;5076710;28;45369;-68
2023/06/25 04:56:25;;;;;;;;;2.00;2.00;;;;;;;;5058751;28;46040;-68
2023/06/25 04:58:50;;;;;;;;;3.00;3.00;;;;;;;;5077384;28;45518;-68
2023/06/25 05:01:15;;;;;;;;;2.75;2.75;;;;;;;;5077011;27;45305;-68
2023/06/25 05:03:40;;;;;;;;;3.25;2.50;;;;;;;;5076369;28;45514;-68
2023/06/25 05:06:05;;;;;;;;;2.75;2.75;;;;;;;;5076432;28;46033;-68
2023/06/25 05:08:31;;;;;;;;;2.00;2.00;;;;;;;;5063297;27;45316;-68
2023/06/25 05:10:56;;;;;;;;;3.00;3.00;;;;;;;;5089192;27;45283;-68
2023/06/25 05:13:21;;;;;;;;;3.25;2.25;;;;;;;;5097246;27;45426;-68
2023/06/25 05:15:46;;;;;;;;;2.00;2.00;;;;;;;;5097666;27;47144;-68
2023/06/25 05:18:12;;;;;;;;;3.00;3.00;;;;;;;;5097661;27;45366;-67
2023/06/25 05:20:38;;;;;;;;;3.50;2.50;;;;;;;;5097561;27;45345;-68
2023/06/25 05:23:03;;;;;;;;;4.00;2.25;;;;;;;;5079624;27;45547;-68
2023/06/25 05:25:29;;;;;;;;;4.75;3.75;;;;;;;;5079346;27;45381;-68
2023/06/25 05:27:54;;;;;;;;;4.50;3.50;;;;;;;;5078693;27;45355;-68
2023/06/25 05:30:19;;;;;;;;;4.50;2.00;;;;;;;;5079059;27;45408;-68
2023/06/25 05:32:44;;;;;;;;;3.00;2.00;;;;;;;;5097276;27;45324;-68
2023/06/25 05:35:09;;;;;;;;;3.50;2.00;;;;;;;;5096849;27;45522;-68
2023/06/25 05:37:35;;;;;;;;;1.00;1.00;;;;;;;;5097704;27;45290;-68
2023/06/25 05:40:00;;;;;;;;;3.25;3.00;;;;;;;;5097140;27;45544;-68
2023/06/25 05:42:25;;;;;;;;;4.50;3.50;;;;;;;;5090112;27;45347;-68
2023/06/25 05:44:50;;;;;;;;;4.75;4.00;;;;;;;;5076829;28;45430;-68
2023/06/25 05:47:15;;;;;;;;;3.75;3.25;;;;;;;;5076778;28;45602;-68
2023/06/25 05:49:41;;;;;;;;;5.25;3.75;;;;;;;;5058734;28;45367;-68
2023/06/25 05:52:06;;;;;;;;;3.00;2.50;;;;;;;;5076712;28;46069;-67
2023/06/25 05:54:31;;;;;;;;;1.75;1.75;;;;;;;;5075974;28;46129;-68
2023/06/25 05:56:56;;;;;;;;;3.50;2.00;;;;;;;;5076747;28;45496;-67
2023/06/25 05:59:23;;;;;;;;;4.50;3.50;;;;;;;;5058571;28;45399;-68
2023/06/25 06:01:48;;;;;;;;;2.25;2.25;;;;;;;;5076608;27;45394;-68
2023/06/25 06:04:13;;;;;;;;;3.50;3.50;;;;;;;;5075507;28;46187;-67
2023/06/25 06:06:39;;;;;;;;;5.00;5.00;;;;;;;;5076297;28;45616;-68
2023/06/25 06:09:04;;;;;;;;;4.00;4.00;;;;;;;;5076292;27;45329;-67
2023/06/25 06:11:29;;;;;;;;;3.25;3.25;;;;;;;;5076049;28;45489;-67
2023/06/25 06:13:54;;;;;;;;;4.25;4.00;;;;;;;;5076167;28;46028;-67
2023/06/25 06:16:19;;;;;;;;;5.00;3.25;;;;;;;;5062129;28;45619;-67
2023/06/25 06:18:44;;;;;;;;;3.25;3.25;;;;;;;;5086438;27;45550;-67
2023/06/25 06:21:10;;;;;;;;;3.50;3.50;;;;;;;;5095798;27;45454;-67
2023/06/25 06:23:35;;;;;;;;;3.75;3.75;;;;;;;;5096419;27;45444;-67
2023/06/25 06:26:00;;;;;;;;;3.25;3.25;;;;;;;;5095835;27;45415;-68
2023/06/25 06:28:25;;;;;;;;;3.00;3.00;;;;;;;;5097800;27;45346;-81
2023/06/25 06:30:50;;;;;;;;;4.25;4.25;;;;;;;;5097859;27;45311;-83
2023/06/25 06:33:16;;;;;;;;;3.00;3.00;;;;;;;;5096875;27;45413;-81
2023/06/25 06:35:41;;;;;;;;;4.50;2.75;;;;;;;;5096599;27;45276;-83
2023/06/25 06:38:06;;;;;;;;;3.50;3.50;;;;;;;;5097360;27;45362;-82
2023/06/25 06:40:31;;;;;;;;;4.50;4.00;;;;;;;;5078107;27;45459;-81
2023/06/25 06:42:56;;;;;;;;;4.50;4.00;;;;;;;;5084317;27;45514;-82
2023/06/25 06:45:22;;;;;;;;;5.75;4.00;;;;;;;;5076042;28;45558;-82
2023/06/25 06:47:47;;;;;;;;;4.50;3.00;;;;;;;;5076375;28;45433;-84
2023/06/25 06:50:12;;;;;;;;;3.50;3.50;;;;;;;;5076989;28;45431;-82
2023/06/25 06:52:37;;;;;;;;;6.00;3.50;;;;;;;;5076420;28;45409;-81
2023/06/25 06:55:02;;;;;;;;;5.75;5.75;;;;;;;;5057623;28;45384;-84
2023/06/25 06:57:28;;;;;;;;;5.00;5.00;;;;;;;;5060023;28;45347;-86
2023/06/25 06:59:53;;;;;;;;;6.00;6.00;;;;;;;;5077546;28;45437;-84
2023/06/25 07:02:19;;;;;;;;;6.00;6.00;;;;;;;;5060168;27;47333;-86
2023/06/25 07:04:45;;;;;;;;;5.25;5.25;;;;;;;;5093713;27;45359;-85
2023/06/25 07:07:10;;;;;;;;;7.50;7.00;;;;;;;;5075832;27;45328;-81
2023/06/25 07:09:35;;;;;;;;;8.00;6.50;;;;;;;;5057613;28;45508;-88
2023/06/25 07:12:01;;;;;;;;;4.75;4.00;;;;;;;;5057849;28;48385;-87
2023/06/25 07:14:26;;;;;;;;;6.00;6.00;;;;;;;;5075912;28;45386;-85
2023/06/25 07:16:51;;;;;;;;;6.50;6.00;;;;;;;;5077435;28;45393;-86
2023/06/25 07:19:16;;;;;;;;;7.50;7.50;;;;;;;;5075693;27;45422;-72
2023/06/25 07:21:41;;;;;;;;;6.00;6.00;;;;;;;;5056947;28;46819;-73
2023/06/25 07:24:07;;;;;;;;;7.00;5.50;;;;;;;;5075200;28;45287;-73
2023/06/25 07:26:32;;;;;;;;;7.00;6.00;;;;;;;;5075580;28;45288;-73
2023/06/25 07:28:57;;;;;;;;;5.50;5.50;;;;;;;;5078948;27;45359;-68
2023/06/25 07:31:22;;;;;;;;;5.00;5.00;;;;;;;;5080397;27;47347;-68
2023/06/25 07:33:47;;;;;;;;;6.00;6.00;;;;;;;;5089641;27;45362;-70
2023/06/25 07:36:13;;;;;;;;;5.75;5.75;;;;;;;;5087916;27;45376;-70
2023/06/25 07:38:38;;;;;;;;;6.25;6.25;;;;;;;;5056644;28;45512;-70
2023/06/25 07:41:03;;;;;;;;;6.75;6.25;;;;;;;;5075075;28;46063;-70
2023/06/25 07:43:29;;;;;;;;;7.00;4.75;;;;;;;;5074997;28;45560;-71
2023/06/25 07:45:54;;;;;;;;;6.75;6.00;;;;;;;;5075016;28;45638;-70
2023/06/25 07:48:19;;;;;;;;;5.75;5.00;;;;;;;;5075240;28;45261;-70
2023/06/25 07:50:44;;;;;;;;;5.00;5.00;;;;;;;;5075009;28;46725;-71
2023/06/25 07:53:10;;;;;;;;;5.75;5.75;;;;;;;;5074953;28;45288;-71
2023/06/25 07:55:40;;;;;;;;;9.50;7.25;;;;;;;;5078867;27;45283;-71
2023/06/25 07:58:05;;;;;;;;;5.50;5.50;;;;;;;;5078344;28;45500;-71
2023/06/25 08:00:30;;;;;;;;;5.25;5.25;;;;;;;;5077666;28;46169;-71
2023/06/25 08:02:55;;;;;;;;;4.75;4.75;;;;;;;;5078701;28;45541;-71
2023/06/25 08:05:21;;;;;;;;;6.00;6.00;;;;;;;;5060761;28;45467;-72
2023/06/25 08:07:46;;;;;;;;;7.00;7.00;;;;;;;;5078413;28;45467;-68
2023/06/25 08:10:11;;;;;;;;;7.25;6.00;;;;;;;;5060192;28;47316;-69
2023/06/25 08:12:37;;;;;;;;;6.25;6.00;;;;;;;;5078616;28;45378;-68
2023/06/25 08:15:02;;;;;;;;;7.00;7.00;;;;;;;;5059806;28;45420;-69
2023/06/25 08:17:27;;;;;;;;;6.50;6.50;;;;;;;;5078395;28;45403;-69
2023/06/25 08:19:52;;;;;;;;;6.00;6.00;;;;;;;;5077918;28;45532;-68
2023/06/25 08:22:18;;;;;;;;;3.50;3.50;;;;;;;;5077917;28;45522;-68
2023/06/25 08:24:43;;;;;;;;;6.25;6.25;;;;;;;;5059687;28;45559;-69
2023/06/25 08:27:08;;;;;;;;;5.50;5.50;;;;;;;;5078216;28;45509;-68
2023/06/25 08:29:34;;;;;;;;;5.50;5.50;;;;;;;;5059329;28;46795;-68
2023/06/25 08:31:59;;;;;;;;;8.25;8.25;;;;;;;;5077631;28;45450;-68
2023/06/25 08:34:24;;;;;;;;;7.25;7.25;;;;;;;;5059815;28;45779;-69
2023/06/25 08:36:49;;;;;;;;;7.50;6.50;;;;;;;;5059497;28;45580;-68
2023/06/25 08:39:14;;;;;;;;;7.25;5.25;;;;;;;;5078377;27;47181;-69
2023/06/25 08:41:40;;;;;;;;;5.00;5.00;;;;;;;;5088862;27;45330;-69
2023/06/25 08:44:05;;;;;;;;;6.50;6.50;;;;;;;;5059519;27;45366;-69
2023/06/25 08:46:30;;;;;;;;;6.50;5.00;;;;;;;;5078097;28;45483;-68
2023/06/25 08:48:57;;;;;;;;;7.50;7.50;;;;;;;;5077719;28;45935;-70
2023/06/25 08:51:23;;;;;;;;;6.50;6.25;;;;;;;;5076968;28;45622;-68
2023/06/25 08:53:48;;;;;;;;;7.50;6.00;;;;;;;;5062623;27;45480;-67
2023/06/25 08:56:16;;;;;;;;;8.75;8.75;;;;;;;;5093652;27;45768;-69
2023/06/25 08:58:41;;;;;;;;;6.50;6.50;;;;;;;;5076265;27;46390;-68
2023/06/25 09:01:06;;;;;;;;;8.50;8.50;;;;;;;;5077550;27;45404;-69
2023/06/25 09:03:31;;;;;;;;;6.75;6.50;;;;;;;;5077840;28;45373;-68
2023/06/25 09:05:57;;;;;;;;;7.25;7.00;;;;;;;;5076899;28;45316;-69
2023/06/25 09:08:23;;;;;;;;;10.25;8.75;;;;;;;;5077604;28;45597;-68
2023/06/25 09:10:50;;;;;;;;;7.00;5.50;;;;;;;;5076454;28;45387;-69
2023/06/25 09:13:19;;;;;;;;;7.00;7.00;;;;;;;;5076565;28;45636;-68
2023/06/25 09:15:45;;;;;;;;;8.50;6.50;;;;;;;;5077313;27;45474;-68
2023/06/25 09:18:10;;;;;;;;;7.00;7.00;;;;;;;;5058543;28;45680;-68
2023/06/25 09:20:35;;;;;;;;;6.25;6.25;;;;;;;;5077107;27;45492;-69
2023/06/25 09:23:04;;;;;;;;;6.75;6.75;;;;;;;;5058619;28;45453;-69
2023/06/25 09:25:30;;;;;;;;;6.50;6.50;;;;;;;;5077012;28;45502;-69
2023/06/25 09:27:55;;;;;;;;;6.00;6.00;;;;;;;;5076672;28;45370;-68
2023/06/25 09:30:24;;;;;;;;;5.75;5.00;;;;;;;;5076655;28;45453;-70
2023/06/25 09:32:49;;;;;;;;;5.00;5.00;;;;;;;;5077440;27;45485;-69
2023/06/25 09:35:21;;;;;;;;;8.50;8.00;;;;;;;;5076925;28;45410;-69
2023/06/25 09:37:46;;;;;;;;;7.25;6.25;;;;;;;;5076994;28;45450;-69
2023/06/25 09:40:12;;;;;;;;;7.00;7.00;;;;;;;;5076903;28;45290;-69
2023/06/25 09:42:39;;;;;;;;;7.75;5.50;;;;;;;;5076354;28;45346;-69
2023/06/25 09:45:05;;;;;;;;;5.25;5.25;;;;;;;;5076972;28;45323;-69
2023/06/25 09:47:31;;;;;;;;;5.25;5.25;;;;;;;;5077238;27;46539;-69
2023/06/25 09:49:56;;;;;;;;;5.50;5.50;;;;;;;;5083910;27;45565;-69
2023/06/25 09:52:24;;;;;;;;;8.25;7.25;;;;;;;;5097191;27;45799;-70
2023/06/25 09:54:50;;;;;;;;;4.75;4.75;;;;;;;;5082847;27;45488;-69
2023/06/25 09:57:18;;;;;;;;;8.50;7.25;;;;;;;;5075922;28;45352;-69
2023/06/25 09:59:43;;;;;;;;;6.25;5.25;;;;;;;;5077355;28;45345;-70
2023/06/25 10:02:08;;;;;;;;;6.75;6.75;;;;;;;;5042134;28;45765;-70
2023/06/25 10:04:34;;;;;;;;;7.00;6.75;;;;;;;;5059084;28;45567;-70
2023/06/25 10:07:01;;;;;;;;;5.50;5.50;;;;;;;;5077052;28;48760;-70
2023/06/25 10:09:26;;;;;;;;;6.75;6.75;;;;;;;;5077714;28;45374;-70
2023/06/25 10:11:52;;;;;;;;;5.75;5.75;;;;;;;;5076774;27;45663;-70
2023/06/25 10:14:17;;;;;;;;;5.75;5.75;;;;;;;;5077138;28;45479;-70
2023/06/25 10:16:50;;;;;;;;;7.00;7.00;;;;;;;;5076382;28;47715;-70
2023/06/25 10:19:22;;;;;;;;;6.50;6.50;;;;;;;;5076644;27;45440;-69
2023/06/25 10:22:06;;;;;;;;;6.75;6.75;;;;;;;;5076226;28;45312;-70
2023/06/25 10:24:41;;;;;;;;;7.00;7.00;;;;;;;;5076289;28;45330;-70
2023/06/25 10:27:18;;;;;;;;;6.00;6.00;;;;;;;;5076155;27;46571;-70
2023/06/25 10:29:43;;;;;;;;;5.75;5.75;;;;;;;;5076164;28;45449;-70
2023/06/25 10:32:10;;;;;;;;;7.00;7.00;;;;;;;;5076442;27;45363;-70
2023/06/25 10:34:35;;;;;;;;;5.50;4.50;;;;;;;;5076465;28;45382;-70
2023/06/25 10:37:03;;;;;;;;;5.75;5.75;;;;;;;;5057928;28;48509;-69
2023/06/25 10:39:38;;;;;;;;;7.25;7.25;;;;;;;;5057803;28;45707;-70
2023/06/25 10:42:03;;;;;;;;;3.75;3.75;;;;;;;;5057734;28;45420;-70
2023/06/25 10:44:28;;;;;;;;;7.50;7.50;;;;;;;;5057972;28;45432;-69
2023/06/25 10:47:04;;;;;;;;;6.50;6.50;;;;;;;;5075539;28;45596;-69
2023/06/25 10:49:29;;;;;;;;;6.75;6.75;;;;;;;;5075878;28;45307;-69
2023/06/25 10:51:55;;;;;;;;;7.00;7.00;;;;;;;;5076084;28;45142;-69
2023/06/25 10:54:21;;;;;;;;;5.00;5.00;;;;;;;;5057569;28;45281;-69
2023/06/25 10:56:46;;;;;;;;;6.75;6.75;;;;;;;;5075092;28;45413;-70
2023/06/25 10:59:12;;;;;;;;;6.50;6.50;;;;;;;;5057232;27;45356;-69
2023/06/25 11:01:37;;;;;;;;;6.25;6.25;;;;;;;;5057613;28;45316;-69
2023/06/25 11:04:12;;;;;;;;;6.25;5.50;;;;;;;;5040448;28;45576;-68
2023/06/25 11:06:37;;;;;;;;;6.50;5.50;;;;;;;;5074973;28;45679;-73
2023/06/25 11:09:03;;;;;;;;;4.50;4.50;;;;;;;;5057237;28;45412;-73
2023/06/25 11:11:28;;;;;;;;;7.00;5.50;;;;;;;;5057522;28;45359;-69
2023/06/25 11:13:54;;;;;;;;;5.25;4.50;;;;;;;;5075487;28;45483;-69
2023/06/25 11:16:19;;;;;;;;;8.00;6.75;;;;;;;;5075461;28;45507;-69
2023/06/25 11:18:46;;;;;;;;;6.00;6.00;;;;;;;;5075390;28;45332;-69
2023/06/25 11:21:13;;;;;;;;;7.50;7.50;;;;;;;;5073874;28;45390;-70
2023/06/25 11:23:42;;;;;;;;;5.00;5.00;;;;;;;;5074571;27;45277;-69
2023/06/25 11:26:11;;;;;;;;;6.25;5.75;;;;;;;;5075174;28;45441;-70
2023/06/25 11:28:37;;;;;;;;;7.25;7.25;;;;;;;;5074430;28;45539;-70
2023/06/25 11:31:02;;;;;;;;;6.25;5.75;;;;;;;;5075452;28;45410;-70
2023/06/25 11:33:27;;;;;;;;;4.75;4.75;;;;;;;;5075086;28;45390;-70
2023/06/25 11:35:53;;;;;;;;;5.00;5.00;;;;;;;;5074776;28;47086;-69
2023/06/25 11:38:25;;;;;;;;;4.25;4.25;;;;;;;;5075394;28;45586;-69
2023/06/25 11:40:53;;;;;;;;;6.25;6.25;;;;;;;;5057165;28;45460;-72
2023/06/25 11:43:21;;;;;;;;;7.00;7.00;;;;;;;;5074828;28;45454;-69
2023/06/25 11:45:47;;;;;;;;;5.75;5.75;;;;;;;;5056881;28;48323;-69
2023/06/25 11:48:13;;;;;;;;;9.50;9.50;;;;;;;;5056834;28;45205;-69
2023/06/25 11:50:38;;;;;;;;;6.00;5.50;;;;;;;;5075385;27;45233;-69
2023/06/25 11:53:03;;;;;;;;;5.00;5.00;;;;;;;;5074990;28;45382;-69
2023/06/25 11:55:28;;;;;;;;;7.50;7.50;;;;;;;;5074867;28;46304;-70
2023/06/25 11:57:54;;;;;;;;;7.25;6.25;;;;;;;;5056308;28;45463;-69
2023/06/25 12:00:19;;;;;;;;;7.75;6.50;;;;;;;;5075088;27;45505;-69
2023/06/25 12:02:44;;;;;;;;;7.75;7.00;;;;;;;;5074998;28;45318;-69
2023/06/25 12:05:09;;;;;;;;;4.50;3.75;;;;;;;;5074924;28;45470;-69
2023/06/25 12:07:35;;;;;;;;;5.50;5.50;;;;;;;;5039848;28;45374;-69
2023/06/25 12:10:00;;;;;;;;;5.75;5.75;;;;;;;;5075056;28;45366;-70
2023/06/25 12:12:25;;;;;;;;;7.50;7.50;;;;;;;;5074937;28;45392;-70
2023/06/25 12:14:51;;;;;;;;;6.25;6.25;;;;;;;;5074651;27;45322;-71
2023/06/25 12:17:16;;;;;;;;;6.75;6.00;;;;;;;;5074934;28;46155;-70
2023/06/25 12:19:42;;;;;;;;;9.50;7.75;;;;;;;;5074689;28;45335;-70
2023/06/25 12:22:07;;;;;;;;;7.00;6.00;;;;;;;;5074645;28;45434;-68
2023/06/25 12:24:33;;;;;;;;;10.50;9.75;;;;;;;;5074313;28;45937;-69
2023/06/25 12:26:58;;;;;;;;;8.25;7.25;;;;;;;;5074874;28;45487;-69
2023/06/25 12:29:23;;;;;;;;;6.50;6.50;;;;;;;;5074951;28;45459;-69
2023/06/25 12:31:48;;;;;;;;;6.75;6.75;;;;;;;;5074892;28;45460;-69
2023/06/25 12:34:13;;;;;;;;;7.00;7.00;;;;;;;;5073646;28;46202;-69
2023/06/25 12:36:39;;;;;;;;;9.25;7.25;;;;;;;;5073727;28;45520;-69
2023/06/25 12:39:04;;;;;;;;;1.25;1.25;;;;;;;;5074747;28;45388;-69
2023/06/25 12:41:29;;;;;;;;;8.75;8.00;;;;;;;;5076763;28;45430;-69
2023/06/25 12:43:54;;;;;;;;;7.25;7.25;;;;;;;;5077783;28;45516;-69
2023/06/25 12:46:19;;;;;;;;;5.75;5.75;;;;;;;;5078142;28;45370;-69
2023/06/25 12:48:45;;;;;;;;;8.00;5.75;;;;;;;;5078157;28;45539;-69
2023/06/25 12:51:10;;;;;;;;;8.00;6.75;;;;;;;;5077605;28;45437;-69
2023/06/25 12:53:35;;;;;;;;;4.75;4.75;;;;;;;;5077719;28;46199;-69
2023/06/25 12:56:00;;;;;;;;;6.25;5.75;;;;;;;;5077513;28;45460;-69
2023/06/25 12:58:26;;;;;;;;;10.00;6.00;;;;;;;;5078033;27;45279;-69
2023/06/25 13:00:51;;;;;;;;;6.75;6.75;;;;;;;;5077557;28;45355;-69
2023/06/25 13:03:18;;;;;;;;;6.75;5.75;;;;;;;;5059331;28;47643;-69
2023/06/25 13:05:43;;;;;;;;;7.75;6.25;;;;;;;;5077650;27;45360;-70
2023/06/25 13:08:09;;;;;;;;;6.75;5.50;;;;;;;;5077981;27;45413;-69
2023/06/25 13:10:34;;;;;;;;;6.75;5.75;;;;;;;;5077659;28;45553;-70
2023/06/25 13:12:59;;;;;;;;;8.50;7.50;;;;;;;;5077653;28;45347;-71
2023/06/25 13:15:25;;;;;;;;;7.25;7.25;;;;;;;;5077163;28;45414;-70
2023/06/25 13:17:50;;;;;;;;;5.50;5.50;;;;;;;;5077507;28;45486;-69
2023/06/25 13:20:15;;;;;;;;;8.50;8.50;;;;;;;;5077086;28;45489;-69
2023/06/25 13:22:42;;;;;;;;;5.50;5.50;;;;;;;;5077159;28;45590;-69
2023/06/25 13:25:07;;;;;;;;;8.00;7.25;;;;;;;;5077296;28;45517;-69
2023/06/25 13:27:32;;;;;;;;;5.75;5.75;;;;;;;;5077353;28;45365;-69
2023/06/25 13:29:58;;;;;;;;;5.00;5.00;;;;;;;;5077021;28;45367;-69
2023/06/25 13:32:23;;;;;;;;;4.75;4.75;;;;;;;;5077237;28;45521;-68
2023/06/25 13:34:48;;;;;;;;;7.25;7.25;;;;;;;;5076985;28;45534;-68
2023/06/25 13:37:13;;;;;;;;;5.75;5.75;;;;;;;;5077324;28;45423;-69
2023/06/25 13:39:38;;;;;;;;;7.25;5.75;;;;;;;;5077259;28;45457;-69
2023/06/25 13:42:04;;;;;;;;;10.50;9.00;;;;;;;;5076730;28;47479;-68
2023/06/25 13:44:30;;;;;;;;;5.50;5.50;;;;;;;;5076821;28;45351;-68
2023/06/25 13:46:55;;;;;;;;;6.25;6.25;;;;;;;;5076807;28;45173;-68
2023/06/25 13:49:20;;;;;;;;;5.00;5.00;;;;;;;;5076793;28;45419;-69
2023/06/25 13:51:45;;;;;;;;;5.25;5.25;;;;;;;;5058665;28;46200;-69
2023/06/25 13:54:10;;;;;;;;;4.75;4.75;;;;;;;;5058595;28;45834;-69
2023/06/25 13:56:36;;;;;;;;;4.25;4.25;;;;;;;;5058604;28;45251;-69
2023/06/25 13:59:01;;;;;;;;;7.75;7.75;;;;;;;;5077020;28;45352;-68
2023/06/25 14:01:26;;;;;;;;;6.00;5.75;;;;;;;;5076673;28;45319;-68
2023/06/25 14:03:51;;;;;;;;;5.50;5.50;;;;;;;;5076458;28;45372;-68
2023/06/25 14:06:17;;;;;;;;;5.00;5.00;;;;;;;;5076859;28;45342;-68
2023/06/25 14:08:42;;;;;;;;;6.25;6.25;;;;;;;;5076595;27;45497;-68
2023/06/25 14:11:07;;;;;;;;;5.00;5.00;;;;;;;;5076607;27;45347;-68
2023/06/25 14:13:33;;;;;;;;;6.75;6.00;;;;;;;;5076682;28;45224;-69
2023/06/25 14:15:59;;;;;;;;;3.50;3.50;;;;;;;;5076551;28;45304;-68
2023/06/25 14:18:24;;;;;;;;;5.00;5.00;;;;;;;;5076490;28;45221;-68
2023/06/25 14:20:49;;;;;;;;;6.00;6.00;;;;;;;;5076125;27;45418;-67
2023/06/25 14:23:15;;;;;;;;;5.00;5.00;;;;;;;;5076432;27;45350;-68
2023/06/25 14:25:41;;;;;;;;;7.75;6.00;;;;;;;;5076676;28;45363;-68
2023/06/25 14:28:06;;;;;;;;;5.50;4.75;;;;;;;;5076218;28;45759;-68
2023/06/25 14:30:31;;;;;;;;;7.00;5.50;;;;;;;;5058161;28;47164;-68
2023/06/25 14:32:57;;;;;;;;;5.00;5.00;;;;;;;;5058027;28;45396;-68